sensor_id;sensor_type;location;lat;lon;timestamp;pressure;altitude;pressure_sealevel;temperature;humidity
30873;BME280;17579;42.690;2.586;2022-10-31T00:01:31;97456.75;;;19.68;65.61
30873;BME280;17579;42.690;2.586;2022-10-31T00:03:57;97462.31;;;19.66;66.04
30873;BME280;17579;42.690;2.586;2022-10-31T00:06:23;97467.28;;;19.63;65.76
30873;BME280;17579;42.690;2.586;2022-10-31T00:08:53;97460.66;;;19.59;65.86
30873;BME280;17579;42.690;2.586;2022-10-31T00:11:20;97454.25;;;19.60;65.69
30873;BME280;17579;42.690;2.586;2022-10-31T00:13:45;97468.03;;;19.56;65.32
30873;BME280;17579;42.690;2.586;2022-10-31T00:16:22;97459.31;;;19.48;65.32
30873;BME280;17579;42.690;2.586;2022-10-31T00:18:52;97452.34;;;19.47;65.30
30873;BME280;17579;42.690;2.586;2022-10-31T00:21:19;97462.41;;;19.45;65.08
30873;BME280;17579;42.690;2.586;2022-10-31T00:23:44;97464.47;;;19.43;65.05
30873;BME280;17579;42.690;2.586;2022-10-31T00:26:10;97459.50;;;19.39;64.92
30873;BME280;17579;42.690;2.586;2022-10-31T00:28:35;97465.22;;;19.36;64.85
30873;BME280;17579;42.690;2.586;2022-10-31T00:31:02;97461.94;;;19.34;65.05
30873;BME280;17579;42.690;2.586;2022-10-31T00:33:28;97455.09;;;19.32;65.17
30873;BME280;17579;42.690;2.586;2022-10-31T00:35:54;97451.81;;;19.30;65.59
30873;BME280;17579;42.690;2.586;2022-10-31T00:38:20;97452.63;;;19.30;65.28
30873;BME280;17579;42.690;2.586;2022-10-31T00:40:45;97444.78;;;19.29;65.80
30873;BME280;17579;42.690;2.586;2022-10-31T00:43:11;97450.34;;;19.27;65.96
30873;BME280;17579;42.690;2.586;2022-10-31T00:45:36;97444.16;;;19.27;65.67
30873;BME280;17579;42.690;2.586;2022-10-31T00:48:02;97448.88;;;19.25;65.48
30873;BME280;17579;42.690;2.586;2022-10-31T00:50:28;97450.94;;;19.23;65.46
30873;BME280;17579;42.690;2.586;2022-10-31T00:52:53;97457.31;;;19.21;65.78
30873;BME280;17579;42.690;2.586;2022-10-31T00:55:19;97443.91;;;19.21;65.76
30873;BME280;17579;42.690;2.586;2022-10-31T00:57:47;97439.94;;;19.17;65.97
30873;BME280;17579;42.690;2.586;2022-10-31T01:00:14;97439.94;;;19.17;65.55
30873;BME280;17579;42.690;2.586;2022-10-31T01:02:39;97437.66;;;19.14;66.07
30873;BME280;17579;42.690;2.586;2022-10-31T01:05:05;97435.19;;;19.13;65.81
30873;BME280;17579;42.690;2.586;2022-10-31T01:07:31;97427.94;;;19.13;66.09
30873;BME280;17579;42.690;2.586;2022-10-31T01:09:56;97426.50;;;19.11;65.75
30873;BME280;17579;42.690;2.586;2022-10-31T01:12:22;97414.94;;;19.10;66.02
30873;BME280;17579;42.690;2.586;2022-10-31T01:14:47;97421.50;;;19.08;65.76
30873;BME280;17579;42.690;2.586;2022-10-31T01:17:13;97429.13;;;19.04;65.47
30873;BME280;17579;42.690;2.586;2022-10-31T01:19:39;97430.34;;;19.01;65.69
30873;BME280;17579;42.690;2.586;2022-10-31T01:22:05;97437.75;;;18.99;65.81
30873;BME280;17579;42.690;2.586;2022-10-31T01:24:31;97433.81;;;18.95;65.42
30873;BME280;17579;42.690;2.586;2022-10-31T01:26:57;97429.66;;;18.93;65.27
30873;BME280;17579;42.690;2.586;2022-10-31T01:29:22;97422.41;;;18.86;65.50
30873;BME280;17579;42.690;2.586;2022-10-31T01:31:48;97420.09;;;18.83;64.99
30873;BME280;17579;42.690;2.586;2022-10-31T01:34:15;97424.56;;;18.76;65.45
30873;BME280;17579;42.690;2.586;2022-10-31T01:36:43;97429.66;;;18.71;65.56
30873;BME280;17579;42.690;2.586;2022-10-31T01:39:14;97424.88;;;18.66;65.37
30873;BME280;17579;42.690;2.586;2022-10-31T01:41:44;97429.41;;;18.66;65.12
30873;BME280;17579;42.690;2.586;2022-10-31T01:47:19;97413.72;;;18.63;64.83
30873;BME280;17579;42.690;2.586;2022-10-31T01:49:53;97413.22;;;18.52;65.11
30873;BME280;17579;42.690;2.586;2022-10-31T01:55:21;97421.38;;;18.44;65.08
30873;BME280;17579;42.690;2.586;2022-10-31T01:57:52;97421.16;;;18.46;65.36
30873;BME280;17579;42.690;2.586;2022-10-31T02:00:20;97411.31;;;18.46;65.56
30873;BME280;17579;42.690;2.586;2022-10-31T02:02:46;97402.88;;;18.49;65.75
30873;BME280;17579;42.690;2.586;2022-10-31T02:05:20;97399.19;;;18.50;65.75
30873;BME280;17579;42.690;2.586;2022-10-31T02:07:55;97398.53;;;18.48;65.48
30873;BME280;17579;42.690;2.586;2022-10-31T02:10:23;97401.03;;;18.50;65.39
30873;BME280;17579;42.690;2.586;2022-10-31T02:12:53;97405.28;;;18.44;65.27
30873;BME280;17579;42.690;2.586;2022-10-31T02:15:20;97403.28;;;18.46;65.54
30873;BME280;17579;42.690;2.586;2022-10-31T02:17:46;97397.72;;;18.48;65.29
30873;BME280;17579;42.690;2.586;2022-10-31T02:20:18;97395.03;;;18.48;65.32
30873;BME280;17579;42.690;2.586;2022-10-31T02:25:57;97393.44;;;18.53;65.36
30873;BME280;17579;42.690;2.586;2022-10-31T02:28:52;97386.22;;;18.54;65.07
30873;BME280;17579;42.690;2.586;2022-10-31T02:31:35;97381.13;;;18.59;65.29
30873;BME280;17579;42.690;2.586;2022-10-31T02:37:14;97381.94;;;18.60;65.23
30873;BME280;17579;42.690;2.586;2022-10-31T02:39:56;97381.94;;;18.60;65.21
30873;BME280;17579;42.690;2.586;2022-10-31T02:42:49;97376.78;;;18.58;65.42
30873;BME280;17579;42.690;2.586;2022-10-31T02:45:26;97369.56;;;18.59;65.33
30873;BME280;17579;42.690;2.586;2022-10-31T02:47:56;97381.31;;;18.58;65.63
30873;BME280;17579;42.690;2.586;2022-10-31T02:50:32;97375.91;;;18.51;65.33
30873;BME280;17579;42.690;2.586;2022-10-31T02:53:00;97381.66;;;18.48;66.04
30873;BME280;17579;42.690;2.586;2022-10-31T02:55:49;97358.69;;;18.39;66.25
30873;BME280;17579;42.690;2.586;2022-10-31T02:58:21;97357.66;;;18.40;66.38
30873;BME280;17579;42.690;2.586;2022-10-31T03:07:00;97343.00;;;18.35;66.09
30873;BME280;17579;42.690;2.586;2022-10-31T03:09:45;97342.13;;;18.28;66.00
30873;BME280;17579;42.690;2.586;2022-10-31T03:12:26;97338.16;;;18.24;66.19
30873;BME280;17579;42.690;2.586;2022-10-31T03:15:14;97341.53;;;18.11;66.14
30873;BME280;17579;42.690;2.586;2022-10-31T03:18:03;97335.69;;;18.01;66.02
30873;BME280;17579;42.690;2.586;2022-10-31T03:20:41;97341.81;;;17.95;65.68
30873;BME280;17579;42.690;2.586;2022-10-31T03:23:12;97338.66;;;17.91;66.04
30873;BME280;17579;42.690;2.586;2022-10-31T03:25:39;97335.72;;;17.86;66.10
30873;BME280;17579;42.690;2.586;2022-10-31T03:28:06;97341.63;;;17.81;65.91
30873;BME280;17579;42.690;2.586;2022-10-31T03:30:35;97324.13;;;17.79;65.72
30873;BME280;17579;42.690;2.586;2022-10-31T03:33:08;97355.94;;;17.74;65.94
30873;BME280;17579;42.690;2.586;2022-10-31T03:35:36;97331.44;;;17.70;65.78
30873;BME280;17579;42.690;2.586;2022-10-31T03:38:05;97346.00;;;17.67;65.58
30873;BME280;17579;42.690;2.586;2022-10-31T03:40:32;97343.91;;;17.63;65.58
30873;BME280;17579;42.690;2.586;2022-10-31T03:43:05;97338.47;;;17.56;66.01
30873;BME280;17579;42.690;2.586;2022-10-31T03:45:37;97335.97;;;17.55;66.33
30873;BME280;17579;42.690;2.586;2022-10-31T03:48:06;97330.44;;;17.56;65.86
30873;BME280;17579;42.690;2.586;2022-10-31T03:50:55;97334.06;;;17.48;66.14
30873;BME280;17579;42.690;2.586;2022-10-31T03:53:33;97328.31;;;17.52;65.91
30873;BME280;17579;42.690;2.586;2022-10-31T03:56:05;97334.69;;;17.51;65.49
30873;BME280;17579;42.690;2.586;2022-10-31T03:58:40;97328.03;;;17.46;65.02
30873;BME280;17579;42.690;2.586;2022-10-31T04:01:11;97323.06;;;17.43;65.02
30873;BME280;17579;42.690;2.586;2022-10-31T04:03:41;97327.59;;;17.43;65.46
30873;BME280;17579;42.690;2.586;2022-10-31T04:06:10;97322.44;;;17.41;65.48
30873;BME280;17579;42.690;2.586;2022-10-31T04:08:43;97319.97;;;17.40;65.19
30873;BME280;17579;42.690;2.586;2022-10-31T04:11:11;97329.56;;;17.34;65.08
30873;BME280;17579;42.690;2.586;2022-10-31T04:13:39;97334.63;;;17.29;65.62
30873;BME280;17579;42.690;2.586;2022-10-31T04:16:06;97339.34;;;17.27;66.23
30873;BME280;17579;42.690;2.586;2022-10-31T04:18:32;97333.63;;;17.30;66.75
30873;BME280;17579;42.690;2.586;2022-10-31T04:21:02;97325.97;;;17.27;66.66
30873;BME280;17579;42.690;2.586;2022-10-31T04:23:28;97324.56;;;17.31;66.54
30873;BME280;17579;42.690;2.586;2022-10-31T04:25:54;97323.94;;;17.29;66.46
30873;BME280;17579;42.690;2.586;2022-10-31T04:28:19;97316.53;;;17.31;66.34
30873;BME280;17579;42.690;2.586;2022-10-31T04:30:45;97325.03;;;17.35;66.38
30873;BME280;17579;42.690;2.586;2022-10-31T04:33:10;97322.34;;;17.35;66.07
30873;BME280;17579;42.690;2.586;2022-10-31T04:35:36;97325.22;;;17.33;66.04
30873;BME280;17579;42.690;2.586;2022-10-31T04:38:02;97329.91;;;17.31;65.98
30873;BME280;17579;42.690;2.586;2022-10-31T04:40:27;97315.28;;;17.27;66.21
30873;BME280;17579;42.690;2.586;2022-10-31T04:42:53;97319.97;;;17.25;66.10
30873;BME280;17579;42.690;2.586;2022-10-31T04:45:18;97318.28;;;17.24;65.96
30873;BME280;17579;42.690;2.586;2022-10-31T04:47:44;97326.31;;;17.24;65.63
30873;BME280;17579;42.690;2.586;2022-10-31T04:50:09;97299.78;;;17.22;65.45
30873;BME280;17579;42.690;2.586;2022-10-31T04:52:42;97330.50;;;17.11;65.41
30873;BME280;17579;42.690;2.586;2022-10-31T04:55:09;97327.81;;;17.11;65.39
30873;BME280;17579;42.690;2.586;2022-10-31T04:57:45;97311.88;;;17.03;65.71
30873;BME280;17579;42.690;2.586;2022-10-31T05:00:13;97317.69;;;17.07;65.25
30873;BME280;17579;42.690;2.586;2022-10-31T05:02:48;97303.41;;;17.00;65.78
30873;BME280;17579;42.690;2.586;2022-10-31T05:05:15;97308.09;;;16.97;65.50
30873;BME280;17579;42.690;2.586;2022-10-31T05:07:42;97303.94;;;16.95;65.99
30873;BME280;17579;42.690;2.586;2022-10-31T05:10:10;97300.44;;;16.94;65.36
30873;BME280;17579;42.690;2.586;2022-10-31T05:12:36;97303.13;;;16.94;65.46
30873;BME280;17579;42.690;2.586;2022-10-31T05:15:03;97305.97;;;16.93;65.02
30873;BME280;17579;42.690;2.586;2022-10-31T05:17:30;97300.63;;;16.93;64.89
30873;BME280;17579;42.690;2.586;2022-10-31T05:19:56;97308.84;;;16.91;64.71
30873;BME280;17579;42.690;2.586;2022-10-31T05:22:21;97297.81;;;16.86;65.61
30873;BME280;17579;42.690;2.586;2022-10-31T05:24:47;97290.19;;;16.83;65.56
30873;BME280;17579;42.690;2.586;2022-10-31T05:27:12;97291.19;;;16.82;65.28
30873;BME280;17579;42.690;2.586;2022-10-31T05:29:38;97280.44;;;16.75;65.21
30873;BME280;17579;42.690;2.586;2022-10-31T05:32:03;97263.13;;;16.71;64.82
30873;BME280;17579;42.690;2.586;2022-10-31T05:34:29;97279.88;;;16.65;65.52
30873;BME280;17579;42.690;2.586;2022-10-31T05:36:54;97283.56;;;16.64;65.76
30873;BME280;17579;42.690;2.586;2022-10-31T05:39:20;97272.03;;;16.63;65.44
30873;BME280;17579;42.690;2.586;2022-10-31T05:41:45;97279.41;;;16.61;65.26
30873;BME280;17579;42.690;2.586;2022-10-31T05:44:11;97278.41;;;16.62;65.86
30873;BME280;17579;42.690;2.586;2022-10-31T05:46:36;97263.19;;;16.63;66.11
30873;BME280;17579;42.690;2.586;2022-10-31T05:49:02;97277.91;;;16.59;66.02
30873;BME280;17579;42.690;2.586;2022-10-31T05:51:27;97272.56;;;16.59;66.38
30873;BME280;17579;42.690;2.586;2022-10-31T05:53:53;97263.94;;;16.57;66.82
30873;BME280;17579;42.690;2.586;2022-10-31T05:56:18;97268.16;;;16.51;66.72
30873;BME280;17579;42.690;2.586;2022-10-31T05:58:44;97264.81;;;16.49;66.87
30873;BME280;17579;42.690;2.586;2022-10-31T06:01:09;97269.34;;;16.49;67.10
30873;BME280;17579;42.690;2.586;2022-10-31T06:03:35;97272.69;;;16.51;66.77
30873;BME280;17579;42.690;2.586;2022-10-31T06:06:00;97261.81;;;16.52;66.69
30873;BME280;17579;42.690;2.586;2022-10-31T06:08:26;97267.78;;;16.54;66.92
30873;BME280;17579;42.690;2.586;2022-10-31T06:10:52;97265.94;;;16.55;67.19
30873;BME280;17579;42.690;2.586;2022-10-31T06:13:19;97270.28;;;16.56;66.93
30873;BME280;17579;42.690;2.586;2022-10-31T06:15:44;97268.44;;;16.56;67.07
30873;BME280;17579;42.690;2.586;2022-10-31T06:18:10;97263.28;;;16.55;66.92
30873;BME280;17579;42.690;2.586;2022-10-31T06:20:35;97266.78;;;16.55;67.07
30873;BME280;17579;42.690;2.586;2022-10-31T06:23:01;97277.00;;;16.52;66.93
30873;BME280;17579;42.690;2.586;2022-10-31T06:25:28;97279.03;;;16.50;66.67
30873;BME280;17579;42.690;2.586;2022-10-31T06:27:54;97282.31;;;16.52;67.29
30873;BME280;17579;42.690;2.586;2022-10-31T06:30:20;97282.31;;;16.52;66.49
30873;BME280;17579;42.690;2.586;2022-10-31T06:32:45;97285.47;;;16.55;66.31
30873;BME280;17579;42.690;2.586;2022-10-31T06:35:11;97272.50;;;16.52;65.99
30873;BME280;17579;42.690;2.586;2022-10-31T06:37:37;97278.84;;;16.51;65.94
30873;BME280;17579;42.690;2.586;2022-10-31T06:40:03;97289.34;;;16.53;66.05
30873;BME280;17579;42.690;2.586;2022-10-31T06:42:29;97290.81;;;16.55;65.68
30873;BME280;17579;42.690;2.586;2022-10-31T06:44:54;97288.69;;;16.51;65.28
30873;BME280;17579;42.690;2.586;2022-10-31T06:47:20;97290.53;;;16.50;65.30
30873;BME280;17579;42.690;2.586;2022-10-31T06:49:45;97293.19;;;16.50;65.64
30873;BME280;17579;42.690;2.586;2022-10-31T06:52:11;97285.84;;;16.52;65.13
30873;BME280;17579;42.690;2.586;2022-10-31T06:54:36;97289.78;;;16.56;65.64
30873;BME280;17579;42.690;2.586;2022-10-31T06:57:02;97293.75;;;16.60;65.90
30873;BME280;17579;42.690;2.586;2022-10-31T06:59:27;97291.19;;;16.67;66.31
30873;BME280;17579;42.690;2.586;2022-10-31T07:01:53;97298.47;;;16.73;66.03
30873;BME280;17579;42.690;2.586;2022-10-31T07:04:18;97295.28;;;16.78;65.96
30873;BME280;17579;42.690;2.586;2022-10-31T07:06:44;97298.38;;;16.82;66.37
30873;BME280;17579;42.690;2.586;2022-10-31T07:09:09;97307.69;;;16.86;66.15
30873;BME280;17579;42.690;2.586;2022-10-31T07:11:35;97297.50;;;16.89;66.02
30873;BME280;17579;42.690;2.586;2022-10-31T07:14:01;97306.78;;;16.93;66.28
30873;BME280;17579;42.690;2.586;2022-10-31T07:16:26;97314.25;;;16.98;66.61
30873;BME280;17579;42.690;2.586;2022-10-31T07:18:52;97312.44;;;16.99;66.26
30873;BME280;17579;42.690;2.586;2022-10-31T07:21:17;97317.09;;;16.96;66.54
30873;BME280;17579;42.690;2.586;2022-10-31T07:23:43;97321.25;;;16.99;66.37
30873;BME280;17579;42.690;2.586;2022-10-31T07:26:09;97326.22;;;17.02;66.31
30873;BME280;17579;42.690;2.586;2022-10-31T07:28:35;97337.41;;;17.06;66.07
30873;BME280;17579;42.690;2.586;2022-10-31T07:31:01;97337.84;;;17.09;66.50
30873;BME280;17579;42.690;2.586;2022-10-31T07:33:26;97333.16;;;17.11;66.27
30873;BME280;17579;42.690;2.586;2022-10-31T07:35:53;97341.63;;;17.15;66.73
30873;BME280;17579;42.690;2.586;2022-10-31T07:38:18;97333.53;;;17.23;66.34
30873;BME280;17579;42.690;2.586;2022-10-31T07:40:49;97336.66;;;17.27;66.83
30873;BME280;17579;42.690;2.586;2022-10-31T07:43:16;97345.03;;;17.39;66.75
30873;BME280;17579;42.690;2.586;2022-10-31T07:45:42;97341.41;;;17.46;66.59
30873;BME280;17579;42.690;2.586;2022-10-31T07:48:07;97342.13;;;17.55;66.66
30873;BME280;17579;42.690;2.586;2022-10-31T07:50:33;97339.38;;;17.63;66.88
30873;BME280;17579;42.690;2.586;2022-10-31T07:53:05;97342.50;;;17.67;66.43
30873;BME280;17579;42.690;2.586;2022-10-31T07:55:32;97351.88;;;17.78;66.41
30873;BME280;17579;42.690;2.586;2022-10-31T07:57:59;97352.16;;;17.83;66.44
30873;BME280;17579;42.690;2.586;2022-10-31T08:00:26;97347.72;;;17.90;66.33
30873;BME280;17579;42.690;2.586;2022-10-31T08:03:03;97352.88;;;17.92;65.92
30873;BME280;17579;42.690;2.586;2022-10-31T08:05:30;97346.84;;;18.05;66.03
30873;BME280;17579;42.690;2.586;2022-10-31T08:07:56;97343.41;;;18.11;65.97
30873;BME280;17579;42.690;2.586;2022-10-31T08:10:23;97354.38;;;18.16;65.64
30873;BME280;17579;42.690;2.586;2022-10-31T08:13:03;97348.84;;;18.17;65.73
30873;BME280;17579;42.690;2.586;2022-10-31T08:15:29;97354.31;;;18.31;65.59
30873;BME280;17579;42.690;2.586;2022-10-31T08:17:55;97367.97;;;18.36;65.61
30873;BME280;17579;42.690;2.586;2022-10-31T08:20:21;97362.44;;;18.44;65.73
30873;BME280;17579;42.690;2.586;2022-10-31T08:22:54;97357.75;;;18.46;65.15
30873;BME280;17579;42.690;2.586;2022-10-31T08:25:20;97352.69;;;18.58;65.13
30873;BME280;17579;42.690;2.586;2022-10-31T08:27:53;97344.91;;;18.63;65.00
30873;BME280;17579;42.690;2.586;2022-10-31T08:30:21;97351.75;;;18.73;64.62
30873;BME280;17579;42.690;2.586;2022-10-31T08:32:47;97349.53;;;18.76;64.31
30873;BME280;17579;42.690;2.586;2022-10-31T08:35:13;97343.34;;;18.76;63.78
30873;BME280;17579;42.690;2.586;2022-10-31T08:37:39;97345.22;;;18.82;64.13
30873;BME280;17579;42.690;2.586;2022-10-31T08:40:05;97336.66;;;18.86;63.38
30873;BME280;17579;42.690;2.586;2022-10-31T08:42:32;97339.94;;;18.89;63.10
30873;BME280;17579;42.690;2.586;2022-10-31T08:44:57;97335.41;;;18.89;62.96
30873;BME280;17579;42.690;2.586;2022-10-31T08:47:23;97337.63;;;18.85;63.06
30873;BME280;17579;42.690;2.586;2022-10-31T08:49:49;97329.34;;;18.80;62.53
30873;BME280;17579;42.690;2.586;2022-10-31T08:52:14;97319.00;;;18.70;62.62
30873;BME280;17579;42.690;2.586;2022-10-31T08:54:41;97324.28;;;18.64;62.68
30873;BME280;17579;42.690;2.586;2022-10-31T08:57:06;97319.13;;;18.62;63.02
30873;BME280;17579;42.690;2.586;2022-10-31T08:59:32;97325.28;;;18.56;63.06
30873;BME280;17579;42.690;2.586;2022-10-31T09:01:57;97327.69;;;18.51;63.32
30873;BME280;17579;42.690;2.586;2022-10-31T09:04:23;97323.16;;;18.51;63.40
30873;BME280;17579;42.690;2.586;2022-10-31T09:06:48;97319.91;;;18.56;63.76
30873;BME280;17579;42.690;2.586;2022-10-31T09:09:14;97326.78;;;18.65;63.91
30873;BME280;17579;42.690;2.586;2022-10-31T09:11:39;97334.47;;;18.75;63.46
30873;BME280;17579;42.690;2.586;2022-10-31T09:14:05;97313.72;;;18.84;63.00
30873;BME280;17579;42.690;2.586;2022-10-31T09:16:31;97309.25;;;18.91;62.69
30873;BME280;17579;42.690;2.586;2022-10-31T09:18:56;97316.31;;;18.99;62.71
30873;BME280;17579;42.690;2.586;2022-10-31T09:21:22;97320.25;;;19.03;62.43
30873;BME280;17579;42.690;2.586;2022-10-31T09:23:48;97314.53;;;19.13;62.91
30873;BME280;17579;42.690;2.586;2022-10-31T09:26:13;97313.16;;;19.30;62.09
30873;BME280;17579;42.690;2.586;2022-10-31T09:28:39;97298.13;;;19.36;60.82
30873;BME280;17579;42.690;2.586;2022-10-31T09:31:04;97305.16;;;19.44;61.17
30873;BME280;17579;42.690;2.586;2022-10-31T09:33:30;97305.25;;;19.57;61.45
30873;BME280;17579;42.690;2.586;2022-10-31T09:35:58;97309.63;;;19.71;60.84
30873;BME280;17579;42.690;2.586;2022-10-31T09:38:24;97306.59;;;19.88;59.43
30873;BME280;17579;42.690;2.586;2022-10-31T09:41:12;97289.03;;;19.92;60.41
30873;BME280;17579;42.690;2.586;2022-10-31T09:44:13;97298.97;;;20.05;59.67
30873;BME280;17579;42.690;2.586;2022-10-31T09:50:11;97293.84;;;20.50;59.83
30873;BME280;17579;42.690;2.586;2022-10-31T09:52:43;97287.84;;;20.75;57.75
30873;BME280;17579;42.690;2.586;2022-10-31T09:55:23;97283.94;;;20.77;57.32
30873;BME280;17579;42.690;2.586;2022-10-31T09:57:52;97285.75;;;20.84;56.98
30873;BME280;17579;42.690;2.586;2022-10-31T10:00:20;97291.72;;;20.99;56.78
30873;BME280;17579;42.690;2.586;2022-10-31T10:02:56;97284.44;;;21.20;56.82
30873;BME280;17579;42.690;2.586;2022-10-31T10:08:18;97294.25;;;21.59;55.81
30873;BME280;17579;42.690;2.586;2022-10-31T10:11:12;97291.28;;;21.68;55.98
30873;BME280;17579;42.690;2.586;2022-10-31T10:14:12;97289.34;;;21.82;55.99
30873;BME280;17579;42.690;2.586;2022-10-31T10:16:55;97278.31;;;21.90;54.87
30873;BME280;17579;42.690;2.586;2022-10-31T10:19:59;97280.44;;;21.81;54.35
30873;BME280;17579;42.690;2.586;2022-10-31T10:22:40;97281.47;;;21.80;54.37
30873;BME280;17579;42.690;2.586;2022-10-31T10:25:19;97276.66;;;21.89;54.34
30873;BME280;17579;42.690;2.586;2022-10-31T10:31:05;97264.66;;;22.17;54.10
30873;BME280;17579;42.690;2.586;2022-10-31T10:33:36;97254.81;;;22.29;52.30
30873;BME280;17579;42.690;2.586;2022-10-31T10:36:10;97255.84;;;22.35;52.44
30873;BME280;17579;42.690;2.586;2022-10-31T10:38:51;97254.72;;;22.42;53.20
30873;BME280;17579;42.690;2.586;2022-10-31T10:41:21;97233.50;;;22.53;51.99
30873;BME280;17579;42.690;2.586;2022-10-31T10:43:49;97229.28;;;22.38;51.08
30873;BME280;17579;42.690;2.586;2022-10-31T10:46:34;97231.75;;;22.14;51.68
30873;BME280;17579;42.690;2.586;2022-10-31T10:49:43;97232.09;;;21.93;52.40
30873;BME280;17579;42.690;2.586;2022-10-31T10:55:29;97227.66;;;21.80;52.73
30873;BME280;17579;42.690;2.586;2022-10-31T10:58:03;97217.09;;;21.78;52.58
30873;BME280;17579;42.690;2.586;2022-10-31T11:00:42;97219.81;;;21.72;52.31
30873;BME280;17579;42.690;2.586;2022-10-31T11:03:09;97211.97;;;21.70;51.79
30873;BME280;17579;42.690;2.586;2022-10-31T11:05:58;97213.06;;;21.62;52.89
30873;BME280;17579;42.690;2.586;2022-10-31T11:08:32;97212.53;;;21.79;52.29
30873;BME280;17579;42.690;2.586;2022-10-31T11:11:26;97204.56;;;21.91;52.28
30873;BME280;17579;42.690;2.586;2022-10-31T11:14:12;97200.56;;;22.00;52.11
30873;BME280;17579;42.690;2.586;2022-10-31T11:16:42;97205.47;;;22.10;51.52
30873;BME280;17579;42.690;2.586;2022-10-31T11:19:20;97205.28;;;22.05;51.85
30873;BME280;17579;42.690;2.586;2022-10-31T11:21:47;97208.22;;;22.03;50.56
30873;BME280;17579;42.690;2.586;2022-10-31T11:24:19;97202.84;;;21.96;51.68
30873;BME280;17579;42.690;2.586;2022-10-31T11:26:47;97193.16;;;21.95;50.91
30873;BME280;17579;42.690;2.586;2022-10-31T11:29:24;97187.31;;;21.98;51.65
30873;BME280;17579;42.690;2.586;2022-10-31T11:31:53;97186.16;;;22.13;50.81
30873;BME280;17579;42.690;2.586;2022-10-31T11:34:42;97174.91;;;22.23;51.38
30873;BME280;17579;42.690;2.586;2022-10-31T11:37:23;97178.41;;;22.48;51.27
30873;BME280;17579;42.690;2.586;2022-10-31T11:39:53;97177.28;;;22.75;49.93
30873;BME280;17579;42.690;2.586;2022-10-31T11:42:22;97175.63;;;22.92;49.45
30873;BME280;17579;42.690;2.586;2022-10-31T11:44:50;97162.28;;;22.97;48.68
30873;BME280;17579;42.690;2.586;2022-10-31T11:47:17;97157.72;;;22.98;48.71
30873;BME280;17579;42.690;2.586;2022-10-31T11:49:47;97159.59;;;22.97;48.07
30873;BME280;17579;42.690;2.586;2022-10-31T11:52:23;97152.78;;;22.95;48.42
30873;BME280;17579;42.690;2.586;2022-10-31T11:55:17;97145.03;;;22.98;49.31
30873;BME280;17579;42.690;2.586;2022-10-31T11:57:51;97136.94;;;23.17;48.57
30873;BME280;17579;42.690;2.586;2022-10-31T12:00:32;97132.91;;;23.26;48.12
30873;BME280;17579;42.690;2.586;2022-10-31T12:03:36;97126.72;;;23.38;48.43
30873;BME280;17579;42.690;2.586;2022-10-31T12:06:15;97108.31;;;23.46;47.04
30873;BME280;17579;42.690;2.586;2022-10-31T12:08:43;97110.78;;;23.48;46.05
30873;BME280;17579;42.690;2.586;2022-10-31T12:11:35;97124.28;;;23.48;48.11
30873;BME280;17579;42.690;2.586;2022-10-31T12:14:19;97120.66;;;23.66;46.63
30873;BME280;17579;42.690;2.586;2022-10-31T12:16:55;97108.72;;;23.74;46.24
30873;BME280;17579;42.690;2.586;2022-10-31T12:28:14;97090.84;;;23.61;46.25
30873;BME280;17579;42.690;2.586;2022-10-31T12:33:53;97075.00;;;23.64;46.02
30873;BME280;17579;42.690;2.586;2022-10-31T12:36:43;97083.09;;;23.64;45.68
30873;BME280;17579;42.690;2.586;2022-10-31T12:48:46;97058.22;;;23.74;45.60
30873;BME280;17579;42.690;2.586;2022-10-31T12:51:49;97044.72;;;23.74;45.60
30873;BME280;17579;42.690;2.586;2022-10-31T12:54:43;97041.19;;;23.74;45.69
30873;BME280;17579;42.690;2.586;2022-10-31T12:57:32;97038.75;;;23.72;44.42
30873;BME280;17579;42.690;2.586;2022-10-31T13:00:14;97045.53;;;23.63;44.53
30873;BME280;17579;42.690;2.586;2022-10-31T13:02:56;97034.88;;;23.56;44.17
30873;BME280;17579;42.690;2.586;2022-10-31T13:05:33;97035.19;;;23.48;44.29
30873;BME280;17579;42.690;2.586;2022-10-31T13:11:02;97023.94;;;23.39;44.32
30873;BME280;17579;42.690;2.586;2022-10-31T13:13:40;97021.47;;;23.38;44.21
30873;BME280;17579;42.690;2.586;2022-10-31T13:16:31;97022.97;;;23.33;45.04
30873;BME280;17579;42.690;2.586;2022-10-31T13:19:13;97021.31;;;23.32;45.28
30873;BME280;17579;42.690;2.586;2022-10-31T13:21:51;97018.41;;;23.34;44.77
30873;BME280;17579;42.690;2.586;2022-10-31T13:24:36;97028.00;;;23.30;44.71
30873;BME280;17579;42.690;2.586;2022-10-31T13:27:13;97026.16;;;23.30;44.55
30873;BME280;17579;42.690;2.586;2022-10-31T13:32:47;97026.47;;;23.22;44.67
30873;BME280;17579;42.690;2.586;2022-10-31T13:35:29;97025.19;;;23.25;44.73
30873;BME280;17579;42.690;2.586;2022-10-31T13:38:17;97015.78;;;23.27;45.16
30873;BME280;17579;42.690;2.586;2022-10-31T13:40:59;97005.38;;;23.31;44.64
30873;BME280;17579;42.690;2.586;2022-10-31T13:43:39;97011.34;;;23.33;44.94
30873;BME280;17579;42.690;2.586;2022-10-31T13:46:25;97012.19;;;23.33;44.82
30873;BME280;17579;42.690;2.586;2022-10-31T13:48:51;97006.09;;;23.38;44.00
30873;BME280;17579;42.690;2.586;2022-10-31T13:51:32;97016.75;;;23.33;44.36
30873;BME280;17579;42.690;2.586;2022-10-31T13:54:21;97013.81;;;23.34;44.98
30873;BME280;17579;42.690;2.586;2022-10-31T13:56:50;97006.66;;;23.40;44.61
30873;BME280;17579;42.690;2.586;2022-10-31T13:59:19;96999.88;;;23.38;44.02
30873;BME280;17579;42.690;2.586;2022-10-31T14:02:13;97002.53;;;23.26;44.81
30873;BME280;17579;42.690;2.586;2022-10-31T14:04:52;97008.78;;;23.26;44.96
30873;BME280;17579;42.690;2.586;2022-10-31T14:07:24;97001.50;;;23.27;44.63
30873;BME280;17579;42.690;2.586;2022-10-31T14:10:01;96997.38;;;23.24;44.98
30873;BME280;17579;42.690;2.586;2022-10-31T14:12:41;97005.94;;;23.21;44.98
30873;BME280;17579;42.690;2.586;2022-10-31T14:15:20;97006.16;;;23.20;44.74
30873;BME280;17579;42.690;2.586;2022-10-31T14:18:05;97007.44;;;23.17;45.24
30873;BME280;17579;42.690;2.586;2022-10-31T14:20:44;96997.72;;;23.16;45.38